createdAt,value
2023-01-02T00:00:06.895Z,17.25
2023-01-02T00:02:35.255Z,13.93
2023-01-02T00:05:03.350Z,14.55
2023-01-02T00:07:32.002Z,15.30
2023-01-02T00:10:01.374Z,14.02
2023-01-02T00:12:29.399Z,14.43
2023-01-02T00:14:57.351Z,13.47
2023-01-02T00:17:25.417Z,11.75
2023-01-02T00:19:53.755Z,11.80
2023-01-02T00:22:21.864Z,10.93
2023-01-02T00:24:49.906Z,12.50
2023-01-02T00:27:19.322Z,15.40
2023-01-02T00:29:47.332Z,13.88
2023-01-02T00:32:16.049Z,15.35
2023-01-02T00:34:44.026Z,15.75
2023-01-02T00:37:12.002Z,14.98
2023-01-02T00:39:39.919Z,13.50
2023-01-02T00:42:07.859Z,14.25
2023-01-02T00:44:37.161Z,11.48
2023-01-02T00:47:05.251Z,15.85
2023-01-02T00:49:33.269Z,11.52
2023-01-02T00:52:01.225Z,12.02
2023-01-02T00:54:29.246Z,13.85
2023-01-02T00:56:57.244Z,15.88
2023-01-02T00:59:25.254Z,11.55
2023-01-02T01:01:54.669Z,12.97
2023-01-02T01:04:22.742Z,12.07
2023-01-02T01:06:50.717Z,13.15
2023-01-02T01:09:19.130Z,13.48
2023-01-02T01:11:47.055Z,11.32
2023-01-02T01:14:15.008Z,17.70
2023-01-02T01:16:43.044Z,14.20
2023-01-02T01:19:12.752Z,13.55
2023-01-02T01:21:40.710Z,16.85
2023-01-02T01:24:08.928Z,12.52
2023-01-02T01:26:36.850Z,14.32
2023-01-02T01:29:04.894Z,14.35
2023-01-02T01:31:32.931Z,11.80
2023-01-02T01:34:00.915Z,11.38
2023-01-02T01:36:30.322Z,11.52
2023-01-02T01:38:58.359Z,14.65
2023-01-02T01:41:26.980Z,11.65
2023-01-02T01:43:57.327Z,12.13
2023-01-02T01:46:28.968Z,11.93
2023-01-02T01:49:04.045Z,18.15
2023-01-02T01:51:36.471Z,9.98
2023-01-02T01:54:08.899Z,12.83
2023-01-02T01:56:39.821Z,13.07
2023-01-02T01:59:10.928Z,15.13
2023-01-02T02:01:39.836Z,13.23
2023-01-02T02:04:08.316Z,15.80
2023-01-02T02:06:37.922Z,11.25
2023-01-02T02:09:13.630Z,11.45
2023-01-02T02:11:41.931Z,11.90
2023-01-02T02:14:09.948Z,12.35
2023-01-02T02:16:43.603Z,15.40
2023-01-02T02:19:53.401Z,13.93
2023-01-02T02:22:43.116Z,11.68
2023-01-02T02:25:39.821Z,14.18
2023-01-02T02:28:30.066Z,14.97
2023-01-02T02:31:06.132Z,14.32
2023-01-02T02:33:44.062Z,14.70
2023-01-02T02:36:18.905Z,9.80
2023-01-02T02:39:00.699Z,11.48
2023-01-02T02:41:35.390Z,15.13
2023-01-02T02:44:21.868Z,13.23
2023-01-02T02:46:57.452Z,16.73
2023-01-02T02:49:36.199Z,14.65
2023-01-02T02:52:08.461Z,11.75
2023-01-02T02:54:41.874Z,15.02
2023-01-02T02:57:11.419Z,16.08
2023-01-02T02:59:42.537Z,15.95
2023-01-02T03:02:16.710Z,17.42
2023-01-02T03:04:46.699Z,15.55
2023-01-02T03:07:26.359Z,16.58
2023-01-02T03:10:08.304Z,12.05
2023-01-02T03:12:44.762Z,11.90
2023-01-02T03:15:21.461Z,16.80
2023-01-02T03:18:01.584Z,13.52
2023-01-02T03:20:37.851Z,12.70
2023-01-02T03:23:09.181Z,16.35
2023-01-02T03:25:37.867Z,12.23
2023-01-02T03:28:08.773Z,13.43
2023-01-02T03:30:40.021Z,11.38
2023-01-02T03:33:14.695Z,14.65
2023-01-02T03:35:47.158Z,9.55
2023-01-02T03:38:18.446Z,11.30
2023-01-02T03:40:54.039Z,13.40
2023-01-02T03:43:26.159Z,13.73
2023-01-02T03:46:02.936Z,13.95
2023-01-02T03:48:36.426Z,12.10
2023-01-02T03:51:05.465Z,14.38
2023-01-02T03:53:35.379Z,12.27
2023-01-02T03:56:13.829Z,9.43
2023-01-02T03:58:48.121Z,12.15
2023-01-02T04:01:21.521Z,11.95
2023-01-02T04:03:55.194Z,11.88
2023-01-02T04:06:29.189Z,11.63
2023-01-02T04:09:04.125Z,13.55
2023-01-02T04:11:34.982Z,14.38
2023-01-02T04:14:10.408Z,15.40
2023-01-02T04:16:41.509Z,9.93
2023-01-02T04:19:15.498Z,15.13
2023-01-02T04:21:46.783Z,13.75
2023-01-02T04:24:18.129Z,13.73
2023-01-02T04:26:50.440Z,14.48
2023-01-02T04:29:18.714Z,11.75
2023-01-02T04:31:51.331Z,11.13
2023-01-02T04:34:22.596Z,12.70
2023-01-02T04:36:50.736Z,9.90
2023-01-02T04:39:21.628Z,18.08
2023-01-02T04:41:49.584Z,12.02
2023-01-02T04:44:17.552Z,14.27
2023-01-02T04:46:45.598Z,16.07
2023-01-02T04:49:13.606Z,13.88
2023-01-02T04:51:42.976Z,11.05
2023-01-02T04:54:12.267Z,10.87
2023-01-02T04:56:40.358Z,17.05
2023-01-02T04:59:08.479Z,10.38
2023-01-02T05:01:36.547Z,7.72
2023-01-02T05:04:04.607Z,6.90
2023-01-02T05:06:33.700Z,6.27
2023-01-02T05:09:03.056Z,3.90
2023-01-02T05:11:31.003Z,3.70
2023-01-02T05:14:03.854Z,5.03
2023-01-02T05:16:35.000Z,3.73
2023-01-02T05:19:03.040Z,4.30
2023-01-02T05:21:48.375Z,3.30
2023-01-02T05:24:17.844Z,3.20
2023-01-02T05:26:45.751Z,4.25
2023-01-02T05:29:13.785Z,4.28
2023-01-02T05:31:41.802Z,3.17
2023-01-02T05:34:14.590Z,3.37
2023-01-02T05:36:42.696Z,2.55
2023-01-02T05:39:12.137Z,3.38
2023-01-02T05:41:41.886Z,4.20
2023-01-02T05:44:11.524Z,3.70
2023-01-02T05:46:40.427Z,3.92
2023-01-02T05:49:08.841Z,4.10
2023-01-02T05:51:37.266Z,5.13
2023-01-02T05:54:05.496Z,4.60
2023-01-02T05:56:33.484Z,4.07
2023-01-02T05:59:02.799Z,4.30
2023-01-02T06:01:31.459Z,3.58
2023-01-02T06:04:01.529Z,4.90
2023-01-02T06:06:32.355Z,5.68
2023-01-02T06:09:00.788Z,3.70
2023-01-02T06:11:29.193Z,3.90
2023-01-02T06:13:57.456Z,5.15
2023-01-02T06:16:26.775Z,5.68
2023-01-02T06:18:54.766Z,5.55
2023-01-02T06:21:23.427Z,3.83
2023-01-02T06:23:56.064Z,4.20
2023-01-02T06:26:29.866Z,3.80
2023-01-02T06:29:00.880Z,4.13
2023-01-02T06:31:30.498Z,7.82
2023-01-02T06:33:59.984Z,4.32
2023-01-02T06:36:31.283Z,5.10
2023-01-02T06:38:59.578Z,4.80
2023-01-02T06:41:27.779Z,5.50
2023-01-02T06:43:56.002Z,4.32
2023-01-02T06:46:24.822Z,3.40
2023-01-02T06:48:54.295Z,4.50
2023-01-02T06:51:23.789Z,4.05
2023-01-02T06:53:52.176Z,5.40
2023-01-02T06:56:21.744Z,7.28
2023-01-02T06:58:50.289Z,7.63
2023-01-02T07:01:19.956Z,5.70
2023-01-02T07:03:48.119Z,6.38
2023-01-02T07:06:19.050Z,8.23
2023-01-02T07:08:47.389Z,6.97
2023-01-02T07:11:17.258Z,8.97
2023-01-02T07:13:47.101Z,9.85
2023-01-02T07:16:17.323Z,8.00
2023-01-02T07:18:45.605Z,4.85
2023-01-02T07:21:15.199Z,10.98
2023-01-02T07:23:44.568Z,5.97
2023-01-02T07:26:13.539Z,8.40
2023-01-02T07:28:41.778Z,7.88
2023-01-02T07:31:14.956Z,8.07
2023-01-02T07:33:43.075Z,6.73
2023-01-02T07:36:15.196Z,8.38
2023-01-02T07:38:44.954Z,10.73
2023-01-02T07:41:15.593Z,12.00
2023-01-02T07:43:44.339Z,5.22
2023-01-02T07:46:13.009Z,6.10
2023-01-02T07:48:41.257Z,5.20
2023-01-02T07:51:09.758Z,4.95
2023-01-02T07:53:38.294Z,6.03
2023-01-02T07:56:08.189Z,7.80
2023-01-02T07:58:36.161Z,4.53
2023-01-02T08:01:07.677Z,6.07
2023-01-02T08:03:36.203Z,4.85
2023-01-02T08:06:05.938Z,5.95
2023-01-02T08:08:34.270Z,4.90
2023-01-02T08:11:07.335Z,4.70
2023-01-02T08:13:35.886Z,8.00
2023-01-02T08:16:08.057Z,7.07
2023-01-02T08:18:36.445Z,5.72
2023-01-02T08:21:05.008Z,8.48
2023-01-02T08:23:33.646Z,4.85
2023-01-02T08:26:02.304Z,6.83
2023-01-02T08:28:32.082Z,6.30
2023-01-02T08:31:00.309Z,5.88
2023-01-02T08:33:28.811Z,5.38
2023-01-02T08:35:56.787Z,5.97
2023-01-02T08:38:24.755Z,8.40
2023-01-02T08:40:53.026Z,5.65
2023-01-02T08:43:21.029Z,3.10
2023-01-02T08:45:50.440Z,4.40
2023-01-02T08:48:21.053Z,6.82
2023-01-02T08:50:49.719Z,5.43
2023-01-02T08:53:17.828Z,5.22
2023-01-02T08:55:45.869Z,6.93
2023-01-02T08:58:13.837Z,6.78
2023-01-02T09:00:41.833Z,5.07
2023-01-02T09:03:11.230Z,5.07
2023-01-02T09:05:39.262Z,5.40
2023-01-02T09:08:07.223Z,3.60
2023-01-02T09:10:35.233Z,5.38
2023-01-02T09:13:03.204Z,5.28
2023-01-02T09:15:31.755Z,5.07
2023-01-02T09:17:59.807Z,7.07
2023-01-02T09:20:29.080Z,7.47
2023-01-02T09:22:56.992Z,5.65
2023-01-02T09:25:25.054Z,6.82
2023-01-02T09:27:53.245Z,4.45
2023-01-02T09:30:21.581Z,7.82
2023-01-02T09:32:50.900Z,3.87
2023-01-02T09:35:19.162Z,4.35
2023-01-02T09:37:48.506Z,4.38
2023-01-02T09:40:16.505Z,5.47
2023-01-02T09:42:46.052Z,3.97
2023-01-02T09:45:15.071Z,4.30
2023-01-02T09:47:46.208Z,4.85
2023-01-02T09:50:17.323Z,5.10
2023-01-02T09:52:51.105Z,5.78
2023-01-02T09:55:35.763Z,6.03
2023-01-02T09:58:13.305Z,4.40
2023-01-02T10:00:42.843Z,3.00
2023-01-02T10:03:18.250Z,6.20
2023-01-02T10:06:06.953Z,9.43
2023-01-02T10:08:44.278Z,7.22
2023-01-02T10:11:24.813Z,5.72
2023-01-02T10:16:49.734Z,8.45
2023-01-02T10:19:22.516Z,5.40
2023-01-02T10:21:53.304Z,8.32
2023-01-02T10:24:30.694Z,6.50
2023-01-02T10:27:00.300Z,7.78
2023-01-02T10:29:31.155Z,4.78
2023-01-02T10:32:01.365Z,5.70
2023-01-02T10:34:38.006Z,7.28
2023-01-02T10:37:13.597Z,8.77
2023-01-02T10:39:44.580Z,9.40
2023-01-02T10:42:14.792Z,7.13
2023-01-02T10:44:45.340Z,6.93
2023-01-02T10:47:19.398Z,9.70
2023-01-02T10:49:48.016Z,6.30
2023-01-02T10:52:22.556Z,11.45
2023-01-02T10:54:59.485Z,9.60
2023-01-02T10:57:41.783Z,10.23
2023-01-02T11:00:28.564Z,5.60
2023-01-02T11:02:58.900Z,9.50
2023-01-02T11:05:29.247Z,8.63
2023-01-02T11:07:57.766Z,7.88
2023-01-02T11:10:29.200Z,9.35
2023-01-02T11:12:57.647Z,11.60
2023-01-02T11:15:30.810Z,6.50
2023-01-02T11:17:59.668Z,5.95
2023-01-02T11:20:29.706Z,4.87
2023-01-02T11:23:01.400Z,6.47
2023-01-02T11:25:37.969Z,7.32
2023-01-02T11:28:06.785Z,7.53
2023-01-02T11:30:38.046Z,9.27
2023-01-02T11:33:20.775Z,10.23
2023-01-02T11:35:50.230Z,7.22
2023-01-02T11:38:29.652Z,6.72
2023-01-02T11:41:02.117Z,9.07
2023-01-02T11:43:51.935Z,6.70
2023-01-02T11:46:28.619Z,9.85
2023-01-02T11:49:03.487Z,10.27
2023-01-02T11:51:34.976Z,8.07
2023-01-02T11:54:07.835Z,9.75
2023-01-02T11:56:41.170Z,9.88
2023-01-02T11:59:17.315Z,8.63
2023-01-02T12:01:54.377Z,9.73
2023-01-02T12:04:23.835Z,7.40
2023-01-02T12:07:12.394Z,7.85
2023-01-02T12:09:52.898Z,9.10
2023-01-02T12:12:38.876Z,13.82
2023-01-02T12:15:46.656Z,9.65
2023-01-02T12:18:27.722Z,8.60
2023-01-02T12:21:03.994Z,6.47
2023-01-02T12:23:54.319Z,14.35
2023-01-02T12:26:29.245Z,12.70
2023-01-02T12:29:14.152Z,12.10
2023-01-02T12:32:30.656Z,11.30
2023-01-02T12:35:17.494Z,8.77
2023-01-02T12:37:50.028Z,7.88
2023-01-02T12:40:38.824Z,9.93
2023-01-02T12:43:34.323Z,12.43
2023-01-02T12:46:15.504Z,10.30
2023-01-02T12:48:59.747Z,13.53
2023-01-02T12:51:35.648Z,7.63
2023-01-02T12:54:25.671Z,9.33
2023-01-02T12:57:02.813Z,12.82
2023-01-02T12:59:57.290Z,10.40
2023-01-02T13:02:42.860Z,9.27
2023-01-02T13:05:18.302Z,5.53
2023-01-02T13:07:50.148Z,4.07
2023-01-02T13:10:21.462Z,7.65
2023-01-02T13:12:49.826Z,8.77
2023-01-02T13:15:21.857Z,7.55
2023-01-02T13:18:04.454Z,11.52
2023-01-02T13:20:45.258Z,10.00
2023-01-02T13:23:33.496Z,7.10
2023-01-02T13:26:05.201Z,11.43
2023-01-02T13:28:33.930Z,9.02
2023-01-02T13:33:55.804Z,11.10
2023-01-02T13:36:26.597Z,11.93
2023-01-02T13:38:57.681Z,13.35
2023-01-02T13:41:27.754Z,9.60
2023-01-02T13:44:01.851Z,8.48
2023-01-02T13:49:22.680Z,6.07
2023-01-02T13:51:50.594Z,11.63
2023-01-02T13:54:20.963Z,12.65
2023-01-02T13:57:17.547Z,6.20
2023-01-02T13:59:52.896Z,9.40
2023-01-02T14:02:22.475Z,7.55
2023-01-02T14:04:52.005Z,7.80
2023-01-02T14:07:43.282Z,6.32
2023-01-02T14:10:36.213Z,6.97
2023-01-02T14:13:18.666Z,6.47
2023-01-02T14:16:20.951Z,7.23
2023-01-02T14:19:18.132Z,8.07
2023-01-02T14:21:52.396Z,9.32
2023-01-02T14:24:31.120Z,6.70
2023-01-02T14:27:02.130Z,11.27
2023-01-02T14:29:31.625Z,8.43
2023-01-02T14:32:03.390Z,9.25
2023-01-02T14:34:32.231Z,10.07
2023-01-02T14:37:03.118Z,9.75
2023-01-02T14:39:33.635Z,8.10
2023-01-02T14:42:33.288Z,5.00
2023-01-02T14:45:06.912Z,5.23
2023-01-02T14:47:38.648Z,6.03
2023-01-02T14:50:12.720Z,7.75
2023-01-02T14:52:45.688Z,5.15
2023-01-02T14:55:18.542Z,4.35
2023-01-02T14:57:50.003Z,10.60
2023-01-02T15:00:23.356Z,4.53
2023-01-02T15:02:56.022Z,4.55
2023-01-02T15:05:36.294Z,5.00
2023-01-02T15:08:08.655Z,5.78
2023-01-02T15:10:56.619Z,5.75
2023-01-02T15:13:27.215Z,3.05
2023-01-02T15:15:59.776Z,6.25
2023-01-02T15:18:30.490Z,5.07
2023-01-02T15:21:05.670Z,4.55
2023-01-02T15:23:35.634Z,4.70
2023-01-02T15:26:33.375Z,5.03
2023-01-02T15:28:57.029Z,7.50
2023-01-02T15:31:25.041Z,9.50
2023-01-02T15:33:54.405Z,7.57
2023-01-02T15:36:33.856Z,7.45
2023-01-02T15:39:12.362Z,7.30
2023-01-02T15:41:49.147Z,9.80
2023-01-02T15:44:40.785Z,8.90
2023-01-02T15:47:09.660Z,10.13
2023-01-02T15:49:40.230Z,7.50
2023-01-02T15:52:14.598Z,10.38
2023-01-02T15:54:44.006Z,13.48
2023-01-02T15:57:16.107Z,11.47
2023-01-02T15:59:44.901Z,8.07
2023-01-02T16:02:31.961Z,10.90
2023-01-02T16:05:15.272Z,11.10
2023-01-02T16:07:49.407Z,9.50
2023-01-02T16:10:22.250Z,8.80
2023-01-02T16:12:56.671Z,8.77
2023-01-02T16:15:29.060Z,9.93
2023-01-02T16:17:57.928Z,10.23
2023-01-02T16:20:27.339Z,6.50
2023-01-02T16:22:58.708Z,6.43
2023-01-02T16:25:29.947Z,12.07
2023-01-02T16:28:02.252Z,8.30
2023-01-02T16:30:33.879Z,7.28
2023-01-02T16:33:03.584Z,6.82
2023-01-02T16:35:34.351Z,7.70
2023-01-02T16:38:04.034Z,7.13
2023-01-02T16:41:00.491Z,6.63
2023-01-02T16:43:33.522Z,6.53
2023-01-02T16:46:05.015Z,9.07
2023-01-02T16:48:33.667Z,6.50
2023-01-02T16:51:01.670Z,4.90
2023-01-02T16:53:32.030Z,7.35
2023-01-02T16:56:01.453Z,8.35
2023-01-02T16:58:29.903Z,6.70
2023-01-02T17:00:58.226Z,7.63
2023-01-02T17:03:27.891Z,7.07
2023-01-02T17:06:01.346Z,7.53
2023-01-02T17:08:31.653Z,6.90
2023-01-02T17:11:01.470Z,9.95
2023-01-02T17:13:30.331Z,6.35
2023-01-02T17:15:58.647Z,8.02
2023-01-02T17:18:26.879Z,9.00
2023-01-02T17:20:54.818Z,4.85
2023-01-02T17:23:22.866Z,9.50
2023-01-02T17:25:50.895Z,8.83
2023-01-02T17:28:20.542Z,9.27
2023-01-02T17:30:50.129Z,7.20
2023-01-02T17:33:18.478Z,7.20
2023-01-02T17:35:46.717Z,5.35
2023-01-02T17:38:15.033Z,6.57
2023-01-02T17:40:43.059Z,6.20
2023-01-02T17:43:11.083Z,10.27
2023-01-02T17:45:42.773Z,6.32
2023-01-02T17:48:13.484Z,4.82
2023-01-02T17:50:43.212Z,7.65
2023-01-02T17:53:11.211Z,6.22
2023-01-02T17:55:39.237Z,9.03
2023-01-02T17:58:07.206Z,7.90
2023-01-02T18:00:35.222Z,12.07
2023-01-02T18:03:04.570Z,8.90
2023-01-02T18:05:32.843Z,8.85
2023-01-02T18:08:00.845Z,11.85
2023-01-02T18:10:32.849Z,8.70
2023-01-02T18:13:03.705Z,11.93
2023-01-02T18:15:31.655Z,9.32
2023-01-02T18:18:03.762Z,10.90
2023-01-02T18:20:33.096Z,9.40
2023-01-02T18:23:01.242Z,11.50
2023-01-02T18:25:30.972Z,11.70
2023-01-02T18:28:02.363Z,10.80
2023-01-02T18:30:30.511Z,13.18
2023-01-02T18:33:03.417Z,9.20
2023-01-02T18:38:29.727Z,10.27
2023-01-02T18:40:58.015Z,13.37
2023-01-02T18:43:29.147Z,11.27
2023-01-02T18:45:59.918Z,10.23
2023-01-02T18:48:28.586Z,13.52
2023-01-02T18:51:00.837Z,12.68
2023-01-02T18:53:32.181Z,13.50
2023-01-02T18:56:03.257Z,14.32
2023-01-02T18:58:43.922Z,13.27
2023-01-02T19:01:30.187Z,15.13
2023-01-02T19:04:26.686Z,15.18
2023-01-02T19:06:58.419Z,13.10
2023-01-02T19:09:31.429Z,13.32
2023-01-02T19:12:21.765Z,12.80
2023-01-02T19:14:56.692Z,13.45
2023-01-02T19:17:27.520Z,12.32
2023-01-02T19:19:56.583Z,16.67
2023-01-02T19:22:32.223Z,14.15
2023-01-02T19:25:09.689Z,11.68
2023-01-02T19:27:39.330Z,11.20
2023-01-02T19:30:23.384Z,13.00
2023-01-02T19:32:51.422Z,14.30
2023-01-02T19:35:54.782Z,15.40
2023-01-02T19:38:27.826Z,12.13
2023-01-02T19:40:56.095Z,11.43
2023-01-02T19:43:24.262Z,14.67
2023-01-02T19:45:52.988Z,13.40
2023-01-02T19:48:21.164Z,11.53
2023-01-02T19:50:49.227Z,12.32
2023-01-02T19:53:17.187Z,12.75
2023-01-02T19:55:46.459Z,12.13
2023-01-02T19:58:14.454Z,12.40
2023-01-02T20:00:43.062Z,13.38
2023-01-02T20:03:11.258Z,10.97
2023-01-02T20:05:39.714Z,13.82
2023-01-02T20:08:07.799Z,11.02
2023-01-02T20:10:35.802Z,10.52
2023-01-02T20:13:05.173Z,10.27
2023-01-02T20:15:33.236Z,12.35
2023-01-02T20:18:08.309Z,10.20
2023-01-02T20:20:36.998Z,13.27
2023-01-02T20:23:04.995Z,11.23
2023-01-02T20:25:32.930Z,12.95
2023-01-02T20:28:03.277Z,13.77
2023-01-02T20:30:32.688Z,11.15
2023-01-02T20:33:01.373Z,11.40
2023-01-02T20:35:29.425Z,8.90
2023-01-02T20:37:57.404Z,12.85
2023-01-02T20:40:25.347Z,10.38
2023-01-02T20:42:53.294Z,9.68
2023-01-02T20:45:21.277Z,10.70
2023-01-02T20:47:50.624Z,12.27
2023-01-02T20:50:18.797Z,10.75
2023-01-02T20:52:49.980Z,10.70
2023-01-02T20:55:21.657Z,8.57
2023-01-02T20:57:51.595Z,10.45
2023-01-02T21:00:21.407Z,12.38
2023-01-02T21:02:50.915Z,11.23
2023-01-02T21:05:19.045Z,10.50
2023-01-02T21:07:47.125Z,8.67
2023-01-02T21:10:15.269Z,10.10
2023-01-02T21:13:00.779Z,11.80
2023-01-02T21:15:45.228Z,11.65
2023-01-02T21:18:17.951Z,8.95
2023-01-02T21:20:47.238Z,8.57
2023-01-02T21:23:16.032Z,9.85
2023-01-02T21:25:44.365Z,9.63
2023-01-02T21:28:12.806Z,10.48
2023-01-02T21:30:41.650Z,8.32
2023-01-02T21:33:09.614Z,12.48
2023-01-02T21:35:39.678Z,11.85
2023-01-02T21:38:07.970Z,11.32
2023-01-02T21:40:36.205Z,7.77
2023-01-02T21:43:03.244Z,8.70
2023-01-02T21:45:31.369Z,10.00
2023-01-02T21:47:59.550Z,10.80
2023-01-02T21:50:28.649Z,10.43
2023-01-02T21:52:58.121Z,8.90
2023-01-02T21:55:26.611Z,9.85
2023-01-02T21:58:12.765Z,12.48
2023-01-02T22:00:41.774Z,8.82
2023-01-02T22:03:09.969Z,10.90
2023-01-02T22:05:38.005Z,10.88
2023-01-02T22:08:07.664Z,10.75
2023-01-02T22:10:35.641Z,9.80
2023-01-02T22:13:03.664Z,8.93
2023-01-02T22:15:31.619Z,9.73
2023-01-02T22:17:59.681Z,9.63
2023-01-02T22:20:27.762Z,7.53
2023-01-02T22:22:55.981Z,10.57
2023-01-02T22:25:25.325Z,7.18
2023-01-02T22:27:53.403Z,7.55
2023-01-02T22:30:29.409Z,8.32
2023-01-02T22:33:01.869Z,7.10
2023-01-02T22:35:29.952Z,9.18
2023-01-02T22:37:59.454Z,9.60
2023-01-02T22:40:29.506Z,8.07
2023-01-02T22:43:06.070Z,9.40
2023-01-02T22:45:41.557Z,6.00
2023-01-02T22:48:17.922Z,8.55
2023-01-02T22:50:47.451Z,7.63
2023-01-02T22:53:26.913Z,6.53
2023-01-02T22:55:56.746Z,7.43
2023-01-02T22:58:25.684Z,6.03
2023-01-02T23:01:02.886Z,8.02
2023-01-02T23:03:33.619Z,8.43
2023-01-02T23:06:01.601Z,5.82
2023-01-02T23:08:29.673Z,8.30
2023-01-02T23:10:59.439Z,5.30
2023-01-02T23:13:27.884Z,8.60
2023-01-02T23:16:13.801Z,5.60
2023-01-02T23:18:59.727Z,5.78
2023-01-02T23:21:29.255Z,5.88
2023-01-02T23:23:57.663Z,12.32
2023-01-02T23:26:31.006Z,7.45
2023-01-02T23:29:08.085Z,6.45
2023-01-02T23:31:38.042Z,7.30
2023-01-02T23:34:06.289Z,6.30
2023-01-02T23:36:34.329Z,6.63
2023-01-02T23:39:03.690Z,5.30
2023-01-02T23:41:33.329Z,6.17
2023-01-02T23:44:01.512Z,6.20
2023-01-02T23:46:29.599Z,9.23
2023-01-02T23:48:57.645Z,5.57
2023-01-02T23:51:25.628Z,4.83
2023-01-02T23:53:53.687Z,6.17
2023-01-02T23:56:23.684Z,9.15
2023-01-02T23:58:56.700Z,6.70
